Weather History for KSAA - February, 2014

Change the Weather History Date:

Monday, February 17, 2014

  Actual Average Record
Temperature  
Mean Temperature 30 °F -  
Max Temperature 42 °F 36 °F 42 °F (2014)
Min Temperature 19 °F 17 °F 12 °F (2015)
Degree Days  
Heating Degree Days 34    
Moisture  
Dew Point 15 °F    
Average Humidity 52    
Maximum Humidity 74    
Minimum Humidity 31    
Precipitation  
Precipitation 0.00 in - - ()
Sea Level Pressure  
Sea Level Pressure 30.05 in    
Wind  
Wind Speed 17 mph (South)    
Max Wind Speed 29 mph    
Max Gust Speed 38 mph    
Visibility 10 miles    
Events      
Averages and records for this station are not official NWS values.
T = Trace of Precipitation, MM = Missing Value Source: NWS Daily Summary

Daily Weather History Graph

Daily Weather History Graph

Search for Another Location

Airport or City:

Trip Planner

Search our weather history database for the weather conditions in past years. The results will help you decide how hot, cold, wet, or windy it might be!

Date:

Astronomy

Feb. 17, 2014 Rise Set
Actual Time 6:59 AM MST 5:43 PM MST
Civil Twilight 6:31 AM MST 6:11 PM MST
Nautical Twilight 5:58 AM MST 6:44 PM MST
Astronomical Twilight 5:26 AM MST 7:16 PM MST
Moon 8:43 PM MST (2/17) 7:59 AM MST (2/17)
Length of Visible Light 11h 40m
Length of Day
10h 44m
Waning Gibbous, 93% of the Moon is Illuminated
Feb 17
Waning Gibbous
Feb 22
Last Quarter
Mar 1
New
Mar 8
First Quarter
Mar 16
Full

Hourly Weather History & Observations

Time (MST) Temp. Windchill Dew Point Humidity Pressure Visibility Wind Dir Wind Speed Gust Speed Precip Events Conditions
12:15 AM 23.0 °F 8.7 °F 14.0 °F 68% 30.11 in 10.0 mi West 18.4 mph 32.2 mph N/A   Clear
12:35 AM 23.0 °F 6.3 °F 15.8 °F 74% 30.09 in 10.0 mi WSW 26.5 mph 32.2 mph N/A   Clear
12:55 AM 23.0 °F 6.0 °F 15.8 °F 74% 30.09 in 10.0 mi WSW 27.6 mph 36.8 mph N/A   Clear
1:15 AM 23.0 °F 6.0 °F 15.8 °F 74% 30.09 in 10.0 mi WSW 27.6 mph 35.7 mph N/A   Clear
1:35 AM 23.0 °F 6.6 °F 14.0 °F 68% 30.11 in 10.0 mi WSW 25.3 mph 34.5 mph N/A   Clear
1:55 AM 23.0 °F 8.3 °F 14.0 °F 68% 30.12 in 10.0 mi WSW 19.6 mph 27.6 mph N/A   Clear
2:15 AM 23.0 °F 6.6 °F 14.0 °F 68% 30.11 in 10.0 mi WSW 25.3 mph 29.9 mph N/A   Clear
2:35 AM 23.0 °F 8.7 °F 14.0 °F 68% 30.12 in 10.0 mi SW 18.4 mph 24.2 mph N/A   Clear
2:55 AM 21.2 °F 6.4 °F 14.0 °F 74% 30.13 in 10.0 mi South 18.4 mph 27.6 mph N/A   Clear
3:15 AM 21.2 °F 6.0 °F 12.2 °F 68% 30.13 in 10.0 mi South 19.6 mph - N/A   Clear
3:35 AM 23.0 °F 9.6 °F 12.2 °F 63% 30.14 in 10.0 mi South 16.1 mph 24.2 mph N/A   Clear
3:55 AM 21.2 °F 9.5 °F 12.2 °F 68% 30.15 in 10.0 mi SE 11.5 mph - N/A   Clear
4:15 AM 21.2 °F 10.1 °F 10.4 °F 63% 30.14 in 10.0 mi SSE 10.4 mph - N/A   Clear
4:35 AM 23.0 °F 11.7 °F 12.2 °F 63% 30.14 in 10.0 mi SSE 11.5 mph - N/A   Clear
4:55 AM 19.4 °F 9.5 °F 10.4 °F 68% 30.16 in 10.0 mi SSE 8.1 mph - N/A   Clear
5:15 AM 19.4 °F 8.6 °F 10.4 °F 68% 30.15 in 10.0 mi SSE 9.2 mph - N/A   Clear
5:35 AM 19.4 °F 7.9 °F 12.2 °F 74% 30.15 in 10.0 mi SE 10.4 mph - N/A   Clear
5:55 AM 19.4 °F 7.2 °F 10.4 °F 68% 30.15 in 10.0 mi SSE 11.5 mph - N/A   Clear
6:15 AM 21.2 °F 10.1 °F 12.2 °F 68% 30.15 in 10.0 mi South 10.4 mph - N/A   Clear
6:35 AM 21.2 °F 11.7 °F 12.2 °F 68% 30.16 in 10.0 mi SSE 8.1 mph - N/A   Clear
6:55 AM 21.2 °F 9.5 °F 12.2 °F 68% 30.16 in 10.0 mi SSE 11.5 mph - N/A   Clear
7:15 AM 21.2 °F 10.1 °F 12.2 °F 68% 30.16 in 10.0 mi SSE 10.4 mph - N/A   Clear
7:35 AM 24.8 °F 13.4 °F 12.2 °F 59% 30.16 in 10.0 mi SSE 12.7 mph - N/A   Clear
7:55 AM 24.8 °F 13.4 °F 12.2 °F 59% 30.17 in 10.0 mi South 12.7 mph 18.4 mph N/A   Clear
8:15 AM 24.8 °F 13.4 °F 14.0 °F 64% 30.17 in 10.0 mi SSE 12.7 mph 16.1 mph N/A   Clear
8:35 AM 26.6 °F 14.7 °F 15.8 °F 64% 30.16 in 10.0 mi South 15.0 mph 18.4 mph N/A   Clear
8:55 AM 28.4 °F 19.7 °F 15.8 °F 59% 30.16 in 10.0 mi South 9.2 mph 17.3 mph N/A   Clear
9:15 AM 30.2 °F 20.2 °F 15.8 °F 55% 30.16 in 10.0 mi SE 12.7 mph 16.1 mph N/A   Clear
9:35 AM 32.0 °F 21.2 °F 14.0 °F 48% 30.15 in 10.0 mi SE 16.1 mph 19.6 mph N/A   Clear
9:55 AM 32.0 °F 21.6 °F 15.8 °F 51% 30.15 in 10.0 mi SE 15.0 mph 20.7 mph N/A   Clear
10:15 AM 33.8 °F 23.9 °F 17.6 °F 52% 30.14 in 10.0 mi SE 15.0 mph 19.6 mph N/A   Clear
10:35 AM 33.8 °F 23.9 °F 17.6 °F 52% 30.15 in 10.0 mi SSE 15.0 mph 20.7 mph N/A   Clear
10:55 AM 35.6 °F 28.0 °F 15.8 °F 44% 30.14 in 10.0 mi SSE 10.4 mph - N/A   Clear
11:15 AM 35.6 °F 28.6 °F 14.0 °F 41% 30.14 in 10.0 mi SSE 9.2 mph - N/A   Clear
11:35 AM 37.4 °F 30.3 °F 15.8 °F 41% 30.12 in 10.0 mi SE 10.4 mph - N/A   Clear
11:55 AM 37.4 °F 30.8 °F 14.0 °F 38% 30.11 in 10.0 mi South 9.2 mph - N/A   Clear
12:16 PM 39.2 °F 34.2 °F 14.0 °F 36% 30.10 in 10.0 mi SE 6.9 mph - N/A   Clear
12:35 PM 39.2 °F 31.6 °F 17.6 °F 42% 30.08 in 10.0 mi SE 12.7 mph - N/A   Clear
12:55 PM 41.0 °F - 14.0 °F 33% 30.06 in 10.0 mi Calm Calm - N/A   Clear
1:15 PM 41.0 °F 32.5 °F 17.6 °F 39% 30.04 in 10.0 mi SW 17.3 mph 25.3 mph N/A   Clear
1:35 PM 41.0 °F 30.7 °F 15.8 °F 36% 30.02 in 10.0 mi SW 25.3 mph 31.1 mph N/A   Clear
1:55 PM 42.8 °F 34.0 °F 15.8 °F 34% 30.00 in 10.0 mi SW 20.7 mph 31.1 mph N/A   Clear
2:15 PM 42.8 °F 32.5 °F 15.8 °F 34% 29.99 in 10.0 mi SW 28.8 mph 38.0 mph N/A   Clear
2:35 PM 42.8 °F 32.9 °F 14.0 °F 31% 29.98 in 10.0 mi SW 26.5 mph 38.0 mph N/A   Clear
2:55 PM 42.8 °F 33.1 °F 15.8 °F 34% 29.98 in 10.0 mi SW 25.3 mph 32.2 mph N/A   Clear
3:15 PM 42.8 °F 32.7 °F 15.8 °F 34% 29.97 in 10.0 mi SW 27.6 mph 35.7 mph N/A   Clear
3:35 PM 42.8 °F 33.5 °F 15.8 °F 34% 29.97 in 10.0 mi SW 23.0 mph 31.1 mph N/A   Clear
3:55 PM 42.8 °F 33.1 °F 15.8 °F 34% 29.96 in 10.0 mi SW 25.3 mph 32.2 mph N/A   Clear
4:15 PM 41.0 °F 30.2 °F 14.0 °F 33% 29.94 in 10.0 mi SW 27.6 mph 35.7 mph N/A   Clear
4:35 PM 41.0 °F 31.1 °F 14.0 °F 33% 29.92 in 10.0 mi SW 23.0 mph 32.2 mph N/A   Clear
4:55 PM 39.2 °F 29.0 °F 15.8 °F 39% 29.92 in 10.0 mi SW 21.9 mph 29.9 mph N/A   Clear
5:15 PM 39.2 °F 29.0 °F 14.0 °F 36% 29.92 in 10.0 mi SW 21.9 mph 29.9 mph N/A   Clear
5:35 PM 37.4 °F 27.2 °F 15.8 °F 41% 29.92 in 10.0 mi SW 19.6 mph 27.6 mph N/A   Clear
5:55 PM 37.4 °F 29.3 °F 15.8 °F 41% 29.93 in 10.0 mi WSW 12.7 mph 25.3 mph N/A   Clear
6:15 PM 37.4 °F 34.9 °F 14.0 °F 38% 29.95 in 10.0 mi West 3.5 mph 21.9 mph N/A   Clear
6:35 PM 35.6 °F 27.1 °F 17.6 °F 48% 29.95 in 10.0 mi SW 12.7 mph - N/A   Clear
6:55 PM 35.6 °F 24.0 °F 17.6 °F 48% 29.90 in 10.0 mi SW 23.0 mph 29.9 mph N/A   Clear
7:16 PM 37.4 °F 29.3 °F 15.8 °F 41% 29.93 in 10.0 mi WSW 12.7 mph 25.3 mph N/A   Clear
7:35 PM 35.6 °F 29.9 °F 15.8 °F 44% 29.94 in 10.0 mi SSW 6.9 mph - N/A   Clear
7:55 PM 35.6 °F 29.2 °F 15.8 °F 44% 29.94 in 10.0 mi SSE 8.1 mph - N/A   Clear
8:15 PM 33.8 °F 26.4 °F 15.8 °F 48% 29.94 in 10.0 mi SSW 9.2 mph - N/A   Clear
8:35 PM 33.8 °F 24.8 °F 15.8 °F 48% 29.94 in 10.0 mi SSW 12.7 mph - N/A   Clear
8:55 PM 33.8 °F 25.3 °F 17.6 °F 52% 29.94 in 10.0 mi South 11.5 mph - N/A   Clear
9:16 PM 32.0 °F 24.2 °F 17.6 °F 55% 29.94 in 10.0 mi South 9.2 mph - N/A   Clear
9:35 PM 32.0 °F 24.2 °F 17.6 °F 55% 29.94 in 10.0 mi South 9.2 mph - N/A   Clear
9:55 PM 32.0 °F 26.4 °F 17.6 °F 55% 29.93 in 10.0 mi SSE 5.8 mph - N/A   Clear
10:15 PM 30.2 °F 24.3 °F 17.6 °F 60% 29.92 in 10.0 mi South 5.8 mph - N/A   Clear
10:35 PM 32.0 °F 21.6 °F 17.6 °F 55% 29.90 in 10.0 mi South 15.0 mph - N/A   Clear
10:55 PM 33.8 °F 23.5 °F 15.8 °F 48% 29.89 in 10.0 mi South 16.1 mph - N/A   Clear
11:15 PM 33.8 °F 23.2 °F 15.8 °F 48% 29.87 in 10.0 mi South 17.3 mph - N/A   Clear
11:35 PM 33.8 °F 23.9 °F 14.0 °F 44% 29.87 in 10.0 mi South 15.0 mph - N/A   Clear
11:55 PM 33.8 °F 23.9 °F 14.0 °F 44% 29.87 in 10.0 mi SSW 15.0 mph 20.7 mph N/A   Clear